Licenciado Gustavo Díaz Ordaz International Airport
MMPR : now visible

Airfield :











YOU CAN JOIN US ON...

 
LOGIN :

Register | Disclaimer

   EN    FR    IT 

 









Legend :    VFR   Marginal VFR   IFR   Intensive IFR   Very Intensive IFR
Visi :
Ceiling :
>= 8 km
>= 3000ft
5 to 8 km
1000 to 3000 ft
1500m to 5 km
500 to 1000 ft
800 to 1500m
200 to 500 ft
< 800m
< 200 ft
Symbols :   Thunderstorms  Fog  Heavy snow  Heavy precipitations  Wind > 20 kt






- Airport Elevation : 23 ft
- IATA code : PVR


MMPR - Licenciado Gustavo Díaz Ordaz International

CURRENT METAR :
  • 291252Z 07002KT 7SM -TSRA BKN025CB OVC065 23/23 A3003 RMK 60815 8/96/ TS SW MOV W OCNL LTGICC

EXPIRED METARs :
  • 291220Z 07002KT 7SM -TSRA OVC025CB 23/23 A3002 RMK 8/9// TS SW MOV W OCNL LTGICC
  • 291144Z 14004KT 3SM TSRA OVC025CB 24/23 A3002 RMK SLP161 52019 929 60885 8/9// CONS LTGICCG
  • 291119Z 06006KT 6SM TSRA OVC025CB 27/23 A2998 RMK 8/9// CONS LTGICCG RAB19
  • 291044Z 03007KT 8SM OVC025 26/24 A2995 RMK 8/5// FRQ LTGIC

TAF COR TAF MMPR
Valid from the 29 at 12:00 until the 30 at 18:00 UTC


291205Z 2912/3018 04007KT P6SM SCT030 BKN090 TX30/2920Z TN26/2912Z
TEMPO 2912/2916 3SM TSRA BKN020CB
FM291700 23010KT P6SM BKN020 BKN080 OVC250
PROB40 2917/2921 5SM -RA BKN020CB
FM300000 30005KT P6SM BKN020 BKN080 OVC250
PROB40 3003/3007 5SM TSRA BKN020CB
FM300700 34005KT P6SM SCT025 BKN090
FM301700 23010KT P6SM BKN025 BKN080 BKN250
MMFR FIR / North America



MET'MAP, your aeronautical weather chart ! - Copyright ORBIFLY December 2007 - Disclaimer

ORBIFLY MET'MAP TEAM :

Programming & Development : Alexandra Zaïnal
Original concept : Baudouin d'Aumeries
Technical & hardware support : Manuel Goepfert
Assistance : Marc-Olivier Méhu




SOURCES & CREDITS :

   NOAA       Earth
Advisory